sensor_id;sensor_type;location;lat;lon;timestamp;noise_LAeq;noise_LA_min;noise_LA_max;noise_LA01;noise_LA95
74531;Laerm;63010;55.668;37.878;2023-01-16T00:01:20;57.18;49.82;67.11;;
74531;Laerm;63010;55.668;37.878;2023-01-16T00:03:46;55.08;50.23;60.55;;
74531;Laerm;63010;55.668;37.878;2023-01-16T00:06:12;57.35;51.43;66.22;;
74531;Laerm;63010;55.668;37.878;2023-01-16T00:08:37;56.39;50.71;62.23;;
74531;Laerm;63010;55.668;37.878;2023-01-16T00:11:03;57.16;51.92;62.91;;
74531;Laerm;63010;55.668;37.878;2023-01-16T00:13:28;58.94;50.34;70.90;;
74531;Laerm;63010;55.668;37.878;2023-01-16T00:15:54;57.23;50.71;65.32;;
74531;Laerm;63010;55.668;37.878;2023-01-16T00:18:20;56.76;49.24;62.61;;
74531;Laerm;63010;55.668;37.878;2023-01-16T00:20:47;55.88;50.26;68.09;;
74531;Laerm;63010;55.668;37.878;2023-01-16T00:23:15;56.89;51.19;64.82;;
74531;Laerm;63010;55.668;37.878;2023-01-16T00:25:42;56.81;51.52;63.75;;
74531;Laerm;63010;55.668;37.878;2023-01-16T00:28:08;56.93;50.50;64.07;;
74531;Laerm;63010;55.668;37.878;2023-01-16T00:30:34;58.09;51.53;66.42;;
74531;Laerm;63010;55.668;37.878;2023-01-16T00:33:00;57.34;50.55;65.31;;
74531;Laerm;63010;55.668;37.878;2023-01-16T00:35:25;57.94;51.11;63.54;;
74531;Laerm;63010;55.668;37.878;2023-01-16T00:37:52;56.20;50.12;66.14;;
74531;Laerm;63010;55.668;37.878;2023-01-16T00:40:18;57.21;49.85;69.15;;
74531;Laerm;63010;55.668;37.878;2023-01-16T00:42:44;58.07;49.85;68.17;;
74531;Laerm;63010;55.668;37.878;2023-01-16T00:45:10;57.34;50.35;65.95;;
74531;Laerm;63010;55.668;37.878;2023-01-16T00:47:35;55.37;48.79;64.01;;
74531;Laerm;63010;55.668;37.878;2023-01-16T00:50:01;57.24;49.46;70.41;;
74531;Laerm;63010;55.668;37.878;2023-01-16T00:52:28;57.67;50.01;70.64;;
74531;Laerm;63010;55.668;37.878;2023-01-16T00:54:53;56.67;48.76;76.65;;
74531;Laerm;63010;55.668;37.878;2023-01-16T00:57:19;58.75;49.71;69.66;;
74531;Laerm;63010;55.668;37.878;2023-01-16T00:59:45;58.03;51.80;65.80;;
74531;Laerm;63010;55.668;37.878;2023-01-16T01:02:10;56.24;50.29;62.60;;
74531;Laerm;63010;55.668;37.878;2023-01-16T01:04:36;56.59;50.77;74.83;;
74531;Laerm;63010;55.668;37.878;2023-01-16T01:07:01;56.33;50.41;66.56;;
74531;Laerm;63010;55.668;37.878;2023-01-16T01:09:27;57.38;50.22;66.61;;
74531;Laerm;63010;55.668;37.878;2023-01-16T01:11:52;57.76;50.93;73.07;;
74531;Laerm;63010;55.668;37.878;2023-01-16T01:14:18;57.30;50.41;69.62;;
74531;Laerm;63010;55.668;37.878;2023-01-16T01:16:44;58.10;52.24;63.73;;
74531;Laerm;63010;55.668;37.878;2023-01-16T01:19:09;57.55;49.73;65.38;;
74531;Laerm;63010;55.668;37.878;2023-01-16T01:21:35;58.55;51.68;68.47;;
74531;Laerm;63010;55.668;37.878;2023-01-16T01:24:00;57.72;50.61;67.47;;
74531;Laerm;63010;55.668;37.878;2023-01-16T01:26:26;57.40;49.39;74.21;;
74531;Laerm;63010;55.668;37.878;2023-01-16T01:28:51;58.22;51.76;63.55;;
74531;Laerm;63010;55.668;37.878;2023-01-16T01:31:17;58.93;51.11;71.49;;
74531;Laerm;63010;55.668;37.878;2023-01-16T01:33:42;58.25;52.65;73.59;;
74531;Laerm;63010;55.668;37.878;2023-01-16T01:36:09;57.97;51.34;71.66;;
74531;Laerm;63010;55.668;37.878;2023-01-16T01:38:35;59.02;51.57;68.44;;
74531;Laerm;63010;55.668;37.878;2023-01-16T01:41:00;57.85;51.15;68.92;;
74531;Laerm;63010;55.668;37.878;2023-01-16T01:43:52;57.78;50.77;64.22;;
74531;Laerm;63010;55.668;37.878;2023-01-16T01:46:29;59.07;53.86;68.47;;
74531;Laerm;63010;55.668;37.878;2023-01-16T01:49:07;59.17;51.32;64.89;;
74531;Laerm;63010;55.668;37.878;2023-01-16T01:51:38;57.95;52.27;68.15;;
74531;Laerm;63010;55.668;37.878;2023-01-16T01:54:10;58.13;52.49;65.76;;
74531;Laerm;63010;55.668;37.878;2023-01-16T01:56:42;59.77;52.11;73.26;;
74531;Laerm;63010;55.668;37.878;2023-01-16T01:59:14;58.54;52.57;65.41;;
74531;Laerm;63010;55.668;37.878;2023-01-16T02:01:41;57.73;52.99;64.22;;
74531;Laerm;63010;55.668;37.878;2023-01-16T02:04:13;59.93;54.37;67.62;;
74531;Laerm;63010;55.668;37.878;2023-01-16T02:06:47;59.91;52.38;66.76;;
74531;Laerm;63010;55.668;37.878;2023-01-16T02:09:15;59.93;53.77;70.38;;
74531;Laerm;63010;55.668;37.878;2023-01-16T02:11:43;59.24;51.68;64.57;;
74531;Laerm;63010;55.668;37.878;2023-01-16T02:14:13;58.87;51.95;69.27;;
74531;Laerm;63010;55.668;37.878;2023-01-16T02:16:40;60.85;54.82;75.35;;
74531;Laerm;63010;55.668;37.878;2023-01-16T02:19:49;60.66;53.87;73.41;;
74531;Laerm;63010;55.668;37.878;2023-01-16T02:33:48;60.66;54.26;67.26;;
74531;Laerm;63010;55.668;37.878;2023-01-16T02:39:18;60.40;56.26;65.81;;
74531;Laerm;63010;55.668;37.878;2023-01-16T02:44:40;61.38;54.60;68.15;;
74531;Laerm;63010;55.668;37.878;2023-01-16T02:47:24;61.17;55.19;65.08;;
74531;Laerm;63010;55.668;37.878;2023-01-16T02:50:12;61.01;55.33;68.58;;
74531;Laerm;63010;55.668;37.878;2023-01-16T02:52:56;61.44;54.61;68.72;;
74531;Laerm;63010;55.668;37.878;2023-01-16T02:57:58;61.43;56.79;68.85;;
74531;Laerm;63010;55.668;37.878;2023-01-16T03:00:25;61.93;57.62;71.75;;
74531;Laerm;63010;55.668;37.878;2023-01-16T03:02:51;62.25;56.16;68.64;;
74531;Laerm;63010;55.668;37.878;2023-01-16T03:05:17;61.25;57.09;68.08;;
74531;Laerm;63010;55.668;37.878;2023-01-16T03:08:00;62.81;58.33;68.63;;
74531;Laerm;63010;55.668;37.878;2023-01-16T03:13:47;62.11;57.24;65.90;;
74531;Laerm;63010;55.668;37.878;2023-01-16T03:19:22;61.59;56.61;73.60;;
74531;Laerm;63010;55.668;37.878;2023-01-16T03:27:51;62.28;58.11;71.96;;
74531;Laerm;63010;55.668;37.878;2023-01-16T03:33:02;62.03;57.98;69.75;;
74531;Laerm;63010;55.668;37.878;2023-01-16T03:35:53;61.90;57.10;69.50;;
74531;Laerm;63010;55.668;37.878;2023-01-16T03:38:21;60.80;57.51;64.09;;
74531;Laerm;63010;55.668;37.878;2023-01-16T03:40:48;62.23;57.84;71.07;;
74531;Laerm;63010;55.668;37.878;2023-01-16T03:43:18;61.56;57.22;68.92;;
74531;Laerm;63010;55.668;37.878;2023-01-16T03:46:05;62.67;58.19;71.02;;
74531;Laerm;63010;55.668;37.878;2023-01-16T03:48:49;61.82;57.36;67.27;;
74531;Laerm;63010;55.668;37.878;2023-01-16T03:51:26;61.34;57.82;64.43;;
74531;Laerm;63010;55.668;37.878;2023-01-16T03:57:27;61.81;57.36;71.49;;
74531;Laerm;63010;55.668;37.878;2023-01-16T03:59:55;62.38;56.58;69.82;;
74531;Laerm;63010;55.668;37.878;2023-01-16T04:02:30;62.86;58.43;70.70;;
74531;Laerm;63010;55.668;37.878;2023-01-16T04:05:20;64.02;59.47;71.69;;
74531;Laerm;63010;55.668;37.878;2023-01-16T04:10:24;62.72;59.22;71.34;;
74531;Laerm;63010;55.668;37.878;2023-01-16T04:12:57;63.07;59.02;71.19;;
74531;Laerm;63010;55.668;37.878;2023-01-16T04:15:27;63.52;59.06;77.11;;
74531;Laerm;63010;55.668;37.878;2023-01-16T04:17:55;63.32;59.13;71.66;;
74531;Laerm;63010;55.668;37.878;2023-01-16T04:20:21;63.41;59.21;71.07;;
74531;Laerm;63010;55.668;37.878;2023-01-16T04:22:48;62.76;58.76;68.46;;
74531;Laerm;63010;55.668;37.878;2023-01-16T04:25:14;62.24;57.26;71.81;;
74531;Laerm;63010;55.668;37.878;2023-01-16T04:27:40;62.11;58.53;66.68;;
74531;Laerm;63010;55.668;37.878;2023-01-16T04:30:06;62.10;58.45;72.80;;
74531;Laerm;63010;55.668;37.878;2023-01-16T04:32:32;62.74;59.01;73.42;;
74531;Laerm;63010;55.668;37.878;2023-01-16T04:34:58;63.36;59.08;77.93;;
74531;Laerm;63010;55.668;37.878;2023-01-16T04:37:23;63.71;59.44;80.39;;
74531;Laerm;63010;55.668;37.878;2023-01-16T04:39:49;62.63;58.34;72.58;;
74531;Laerm;63010;55.668;37.878;2023-01-16T04:42:15;61.99;58.34;72.12;;
74531;Laerm;63010;55.668;37.878;2023-01-16T04:44:41;62.12;57.81;70.76;;
74531;Laerm;63010;55.668;37.878;2023-01-16T04:47:07;62.70;58.91;77.45;;
74531;Laerm;63010;55.668;37.878;2023-01-16T04:49:32;62.64;58.62;72.03;;
74531;Laerm;63010;55.668;37.878;2023-01-16T04:51:58;62.60;58.81;69.18;;
74531;Laerm;63010;55.668;37.878;2023-01-16T04:54:24;62.63;58.97;67.96;;
74531;Laerm;63010;55.668;37.878;2023-01-16T04:56:49;62.57;58.46;71.74;;
74531;Laerm;63010;55.668;37.878;2023-01-16T04:59:15;62.66;58.68;69.92;;
74531;Laerm;63010;55.668;37.878;2023-01-16T05:01:41;63.03;58.57;75.01;;
74531;Laerm;63010;55.668;37.878;2023-01-16T05:04:08;62.79;57.73;67.11;;
74531;Laerm;63010;55.668;37.878;2023-01-16T05:06:35;62.62;58.85;65.89;;
74531;Laerm;63010;55.668;37.878;2023-01-16T05:09:02;63.51;59.29;69.34;;
74531;Laerm;63010;55.668;37.878;2023-01-16T05:11:28;62.78;59.20;68.54;;
74531;Laerm;63010;55.668;37.878;2023-01-16T05:13:54;61.72;56.85;65.71;;
74531;Laerm;63010;55.668;37.878;2023-01-16T05:16:20;62.30;57.20;77.82;;
74531;Laerm;63010;55.668;37.878;2023-01-16T05:18:45;60.45;57.16;64.94;;
74531;Laerm;63010;55.668;37.878;2023-01-16T05:21:11;61.45;57.04;69.42;;
74531;Laerm;63010;55.668;37.878;2023-01-16T05:23:36;63.12;58.06;68.25;;
74531;Laerm;63010;55.668;37.878;2023-01-16T05:26:04;62.83;59.50;70.51;;
74531;Laerm;63010;55.668;37.878;2023-01-16T05:28:30;63.05;59.01;67.16;;
74531;Laerm;63010;55.668;37.878;2023-01-16T05:30:56;63.73;58.91;72.17;;
74531;Laerm;63010;55.668;37.878;2023-01-16T05:33:22;64.14;60.26;76.66;;
74531;Laerm;63010;55.668;37.878;2023-01-16T05:35:49;63.60;59.38;75.71;;
74531;Laerm;63010;55.668;37.878;2023-01-16T05:38:16;63.60;58.83;80.17;;
74531;Laerm;63010;55.668;37.878;2023-01-16T05:40:43;63.28;59.71;73.95;;
74531;Laerm;63010;55.668;37.878;2023-01-16T05:43:09;62.68;58.68;69.94;;
74531;Laerm;63010;55.668;37.878;2023-01-16T05:45:34;64.73;59.71;76.94;;
74531;Laerm;63010;55.668;37.878;2023-01-16T05:48:00;63.54;59.85;70.14;;
74531;Laerm;63010;55.668;37.878;2023-01-16T05:50:25;63.65;60.02;75.24;;
74531;Laerm;63010;55.668;37.878;2023-01-16T05:52:51;63.77;59.83;70.47;;
74531;Laerm;63010;55.668;37.878;2023-01-16T05:55:17;63.28;59.64;68.68;;
74531;Laerm;63010;55.668;37.878;2023-01-16T05:57:42;63.23;59.36;67.82;;
74531;Laerm;63010;55.668;37.878;2023-01-16T06:00:08;62.16;57.83;66.61;;
74531;Laerm;63010;55.668;37.878;2023-01-16T06:02:34;62.42;58.43;69.70;;
74531;Laerm;63010;55.668;37.878;2023-01-16T06:05:00;64.12;59.00;78.28;;
74531;Laerm;63010;55.668;37.878;2023-01-16T06:07:26;63.83;59.88;69.74;;
74531;Laerm;63010;55.668;37.878;2023-01-16T06:09:51;62.93;58.51;69.55;;
74531;Laerm;63010;55.668;37.878;2023-01-16T06:12:18;62.81;58.86;68.73;;
74531;Laerm;63010;55.668;37.878;2023-01-16T06:14:44;62.48;59.14;66.74;;
74531;Laerm;63010;55.668;37.878;2023-01-16T06:17:11;62.78;59.22;68.93;;
74531;Laerm;63010;55.668;37.878;2023-01-16T06:19:40;62.49;58.07;67.97;;
74531;Laerm;63010;55.668;37.878;2023-01-16T06:22:06;62.45;59.03;67.53;;
74531;Laerm;63010;55.668;37.878;2023-01-16T06:24:31;62.80;58.13;66.62;;
74531;Laerm;63010;55.668;37.878;2023-01-16T06:26:57;62.69;59.20;68.74;;
74531;Laerm;63010;55.668;37.878;2023-01-16T06:29:23;63.23;59.13;70.60;;
74531;Laerm;63010;55.668;37.878;2023-01-16T06:31:49;63.41;58.39;71.61;;
74531;Laerm;63010;55.668;37.878;2023-01-16T06:34:14;63.12;59.08;77.29;;
74531;Laerm;63010;55.668;37.878;2023-01-16T06:36:40;62.68;57.95;68.70;;
74531;Laerm;63010;55.668;37.878;2023-01-16T06:39:07;62.99;59.42;68.11;;
74531;Laerm;63010;55.668;37.878;2023-01-16T06:41:33;63.78;59.31;71.86;;
74531;Laerm;63010;55.668;37.878;2023-01-16T06:43:58;63.10;58.57;70.78;;
74531;Laerm;63010;55.668;37.878;2023-01-16T06:46:24;63.45;59.05;75.36;;
74531;Laerm;63010;55.668;37.878;2023-01-16T06:48:50;63.28;59.41;66.90;;
74531;Laerm;63010;55.668;37.878;2023-01-16T06:51:15;63.76;59.94;69.62;;
74531;Laerm;63010;55.668;37.878;2023-01-16T06:53:41;64.17;59.40;70.60;;
74531;Laerm;63010;55.668;37.878;2023-01-16T06:56:06;63.42;58.81;72.93;;
74531;Laerm;63010;55.668;37.878;2023-01-16T06:58:32;63.85;58.43;69.77;;
74531;Laerm;63010;55.668;37.878;2023-01-16T07:00:57;64.19;59.81;78.98;;
74531;Laerm;63010;55.668;37.878;2023-01-16T07:03:23;65.34;60.03;73.89;;
74531;Laerm;63010;55.668;37.878;2023-01-16T07:05:50;64.56;60.47;77.18;;
74531;Laerm;63010;55.668;37.878;2023-01-16T07:08:15;65.21;60.29;76.66;;
74531;Laerm;63010;55.668;37.878;2023-01-16T07:10:41;64.39;59.79;72.71;;
74531;Laerm;63010;55.668;37.878;2023-01-16T07:13:07;64.01;59.80;71.90;;
74531;Laerm;63010;55.668;37.878;2023-01-16T07:15:32;64.22;60.77;75.22;;
74531;Laerm;63010;55.668;37.878;2023-01-16T07:18:17;64.28;60.38;70.03;;
74531;Laerm;63010;55.668;37.878;2023-01-16T07:21:03;64.03;59.86;73.47;;
74531;Laerm;63010;55.668;37.878;2023-01-16T07:23:52;63.63;58.97;77.17;;
74531;Laerm;63010;55.668;37.878;2023-01-16T07:26:20;64.29;59.84;74.08;;
74531;Laerm;63010;55.668;37.878;2023-01-16T07:28:48;64.26;59.77;71.81;;
74531;Laerm;63010;55.668;37.878;2023-01-16T07:31:14;63.36;59.63;68.93;;
74531;Laerm;63010;55.668;37.878;2023-01-16T07:33:40;63.97;60.28;73.71;;
74531;Laerm;63010;55.668;37.878;2023-01-16T07:36:06;63.82;60.46;70.06;;
74531;Laerm;63010;55.668;37.878;2023-01-16T07:38:32;64.88;61.07;77.21;;
74531;Laerm;63010;55.668;37.878;2023-01-16T07:40:57;65.16;60.97;73.12;;
74531;Laerm;63010;55.668;37.878;2023-01-16T07:43:23;65.23;61.05;79.16;;
74531;Laerm;63010;55.668;37.878;2023-01-16T07:45:48;63.83;59.98;69.16;;
74531;Laerm;63010;55.668;37.878;2023-01-16T07:48:21;64.16;60.20;72.29;;
74531;Laerm;63010;55.668;37.878;2023-01-16T07:50:51;62.77;57.62;68.59;;
74531;Laerm;63010;55.668;37.878;2023-01-16T07:53:18;63.77;59.64;74.40;;
74531;Laerm;63010;55.668;37.878;2023-01-16T07:55:51;65.09;60.89;77.37;;
74531;Laerm;63010;55.668;37.878;2023-01-16T07:58:17;64.03;59.53;74.46;;
74531;Laerm;63010;55.668;37.878;2023-01-16T08:00:43;64.11;59.92;74.62;;
74531;Laerm;63010;55.668;37.878;2023-01-16T08:03:10;64.20;60.39;73.85;;
74531;Laerm;63010;55.668;37.878;2023-01-16T08:05:35;64.08;60.60;76.71;;
74531;Laerm;63010;55.668;37.878;2023-01-16T08:08:01;63.30;58.27;67.44;;
74531;Laerm;63010;55.668;37.878;2023-01-16T08:10:26;63.77;58.79;74.45;;
74531;Laerm;63010;55.668;37.878;2023-01-16T08:12:52;63.85;59.30;72.27;;
74531;Laerm;63010;55.668;37.878;2023-01-16T08:15:17;63.63;58.33;69.61;;
74531;Laerm;63010;55.668;37.878;2023-01-16T08:17:43;63.22;59.23;68.07;;
74531;Laerm;63010;55.668;37.878;2023-01-16T08:20:09;62.96;58.58;68.78;;
74531;Laerm;63010;55.668;37.878;2023-01-16T08:22:35;63.32;58.18;68.62;;
74531;Laerm;63010;55.668;37.878;2023-01-16T08:25:01;63.84;59.60;77.17;;
74531;Laerm;63010;55.668;37.878;2023-01-16T08:27:27;63.48;58.19;70.51;;
74531;Laerm;63010;55.668;37.878;2023-01-16T08:29:53;63.77;59.85;74.53;;
74531;Laerm;63010;55.668;37.878;2023-01-16T08:32:18;64.24;60.08;75.94;;
74531;Laerm;63010;55.668;37.878;2023-01-16T08:34:44;64.14;60.08;74.36;;
74531;Laerm;63010;55.668;37.878;2023-01-16T08:37:09;64.68;59.96;73.77;;
74531;Laerm;63010;55.668;37.878;2023-01-16T08:39:38;63.79;59.58;73.14;;
74531;Laerm;63010;55.668;37.878;2023-01-16T08:42:04;63.36;59.68;74.08;;
74531;Laerm;63010;55.668;37.878;2023-01-16T08:44:48;64.03;59.81;70.41;;
74531;Laerm;63010;55.668;37.878;2023-01-16T08:47:33;64.41;59.88;74.35;;
74531;Laerm;63010;55.668;37.878;2023-01-16T08:50:18;63.87;59.34;77.67;;
74531;Laerm;63010;55.668;37.878;2023-01-16T08:53:03;63.58;59.74;72.33;;
74531;Laerm;63010;55.668;37.878;2023-01-16T08:55:29;64.25;58.52;70.61;;
74531;Laerm;63010;55.668;37.878;2023-01-16T08:57:54;62.74;58.07;66.54;;
74531;Laerm;63010;55.668;37.878;2023-01-16T09:00:27;63.96;60.08;69.34;;
74531;Laerm;63010;55.668;37.878;2023-01-16T09:02:53;63.15;59.23;70.46;;
74531;Laerm;63010;55.668;37.878;2023-01-16T09:05:21;64.55;60.07;74.47;;
74531;Laerm;63010;55.668;37.878;2023-01-16T09:07:47;63.11;58.98;68.67;;
74531;Laerm;63010;55.668;37.878;2023-01-16T09:10:13;63.95;60.34;77.31;;
74531;Laerm;63010;55.668;37.878;2023-01-16T09:12:39;64.77;59.42;71.18;;
74531;Laerm;63010;55.668;37.878;2023-01-16T09:15:24;64.48;60.41;72.59;;
74531;Laerm;63010;55.668;37.878;2023-01-16T09:17:49;63.34;59.21;68.51;;
74531;Laerm;63010;55.668;37.878;2023-01-16T09:20:15;63.87;60.26;71.91;;
74531;Laerm;63010;55.668;37.878;2023-01-16T09:22:41;64.15;59.94;73.77;;
74531;Laerm;63010;55.668;37.878;2023-01-16T09:25:07;64.18;59.91;74.23;;
74531;Laerm;63010;55.668;37.878;2023-01-16T09:27:32;63.92;60.58;68.51;;
74531;Laerm;63010;55.668;37.878;2023-01-16T09:29:58;64.75;60.23;75.51;;
74531;Laerm;63010;55.668;37.878;2023-01-16T09:32:24;63.78;59.83;70.82;;
74531;Laerm;63010;55.668;37.878;2023-01-16T09:34:50;65.20;60.00;72.80;;
74531;Laerm;63010;55.668;37.878;2023-01-16T09:37:16;64.16;59.66;68.45;;
74531;Laerm;63010;55.668;37.878;2023-01-16T09:39:42;63.57;59.82;67.78;;
74531;Laerm;63010;55.668;37.878;2023-01-16T09:45:02;64.61;59.24;74.73;;
74531;Laerm;63010;55.668;37.878;2023-01-16T09:47:32;63.58;59.26;69.54;;
74531;Laerm;63010;55.668;37.878;2023-01-16T09:50:04;65.95;60.09;81.09;;
74531;Laerm;63010;55.668;37.878;2023-01-16T09:52:33;62.94;59.33;67.12;;
74531;Laerm;63010;55.668;37.878;2023-01-16T09:55:27;63.02;58.83;70.09;;
74531;Laerm;63010;55.668;37.878;2023-01-16T09:58:19;63.43;58.02;77.42;;
74531;Laerm;63010;55.668;37.878;2023-01-16T10:01:01;63.24;59.34;70.35;;
74531;Laerm;63010;55.668;37.878;2023-01-16T10:03:27;64.18;59.85;74.83;;
74531;Laerm;63010;55.668;37.878;2023-01-16T10:06:43;64.15;59.90;72.90;;
74531;Laerm;63010;55.668;37.878;2023-01-16T10:09:17;62.77;58.30;69.91;;
74531;Laerm;63010;55.668;37.878;2023-01-16T10:12:04;63.54;59.15;71.79;;
74531;Laerm;63010;55.668;37.878;2023-01-16T10:22:42;62.42;58.88;66.92;;
74531;Laerm;63010;55.668;37.878;2023-01-16T10:30:33;63.83;58.70;72.25;;
74531;Laerm;63010;55.668;37.878;2023-01-16T10:33:13;62.45;58.87;73.67;;
74531;Laerm;63010;55.668;37.878;2023-01-16T10:35:47;63.76;59.83;72.95;;
74531;Laerm;63010;55.668;37.878;2023-01-16T10:38:29;63.50;59.41;69.93;;
74531;Laerm;63010;55.668;37.878;2023-01-16T10:41:02;63.11;59.09;70.73;;
74531;Laerm;63010;55.668;37.878;2023-01-16T10:43:49;62.60;58.20;67.59;;
74531;Laerm;63010;55.668;37.878;2023-01-16T10:46:42;63.46;59.57;68.04;;
74531;Laerm;63010;55.668;37.878;2023-01-16T10:49:26;64.21;58.44;72.84;;
74531;Laerm;63010;55.668;37.878;2023-01-16T10:51:53;63.22;58.93;70.25;;
74531;Laerm;63010;55.668;37.878;2023-01-16T10:54:20;64.09;60.19;71.71;;
74531;Laerm;63010;55.668;37.878;2023-01-16T10:56:45;63.28;58.88;69.49;;
74531;Laerm;63010;55.668;37.878;2023-01-16T10:59:11;63.24;59.55;74.37;;
74531;Laerm;63010;55.668;37.878;2023-01-16T11:01:39;63.65;60.12;68.35;;
74531;Laerm;63010;55.668;37.878;2023-01-16T11:04:06;62.74;58.64;68.54;;
74531;Laerm;63010;55.668;37.878;2023-01-16T11:06:34;62.99;58.68;70.71;;
74531;Laerm;63010;55.668;37.878;2023-01-16T11:09:03;62.48;59.51;66.89;;
74531;Laerm;63010;55.668;37.878;2023-01-16T11:11:30;63.71;58.45;75.21;;
74531;Laerm;63010;55.668;37.878;2023-01-16T11:14:22;63.96;59.38;69.67;;
74531;Laerm;63010;55.668;37.878;2023-01-16T11:17:35;65.21;59.93;82.93;;
74531;Laerm;63010;55.668;37.878;2023-01-16T11:20:29;63.96;59.36;73.58;;
74531;Laerm;63010;55.668;37.878;2023-01-16T11:23:04;63.11;58.38;69.20;;
74531;Laerm;63010;55.668;37.878;2023-01-16T11:25:30;62.64;58.51;69.93;;
74531;Laerm;63010;55.668;37.878;2023-01-16T11:27:58;63.09;58.93;71.97;;
74531;Laerm;63010;55.668;37.878;2023-01-16T11:30:31;62.94;58.84;73.33;;
74531;Laerm;63010;55.668;37.878;2023-01-16T11:32:58;62.88;58.78;73.08;;
74531;Laerm;63010;55.668;37.878;2023-01-16T11:35:33;63.34;59.11;70.22;;
74531;Laerm;63010;55.668;37.878;2023-01-16T11:37:59;63.85;58.97;73.39;;
74531;Laerm;63010;55.668;37.878;2023-01-16T11:40:31;64.89;58.29;79.71;;
74531;Laerm;63010;55.668;37.878;2023-01-16T11:42:58;62.56;58.30;70.91;;
74531;Laerm;63010;55.668;37.878;2023-01-16T11:45:47;62.37;57.10;73.46;;
74531;Laerm;63010;55.668;37.878;2023-01-16T11:48:41;62.13;56.99;68.38;;
74531;Laerm;63010;55.668;37.878;2023-01-16T11:51:12;63.95;58.59;73.03;;
74531;Laerm;63010;55.668;37.878;2023-01-16T11:53:38;62.85;57.68;71.37;;
74531;Laerm;63010;55.668;37.878;2023-01-16T12:01:48;63.54;57.12;71.66;;
74531;Laerm;63010;55.668;37.878;2023-01-16T12:04:36;62.00;57.67;67.46;;
74531;Laerm;63010;55.668;37.878;2023-01-16T12:09:47;62.47;58.63;75.47;;
74531;Laerm;63010;55.668;37.878;2023-01-16T12:12:35;61.63;57.70;68.06;;
74531;Laerm;63010;55.668;37.878;2023-01-16T12:15:35;62.10;57.12;71.48;;
74531;Laerm;63010;55.668;37.878;2023-01-16T12:21:02;63.32;58.81;70.02;;
74531;Laerm;63010;55.668;37.878;2023-01-16T12:37:08;62.55;58.17;66.03;;
74531;Laerm;63010;55.668;37.878;2023-01-16T12:45:49;62.06;57.22;68.52;;
74531;Laerm;63010;55.668;37.878;2023-01-16T12:57:09;61.87;58.09;70.08;;
74531;Laerm;63010;55.668;37.878;2023-01-16T12:59:31;61.46;58.09;68.01;;
74531;Laerm;63010;55.668;37.878;2023-01-16T13:05:05;62.00;58.77;66.19;;
74531;Laerm;63010;55.668;37.878;2023-01-16T13:07:37;62.78;58.96;75.66;;
74531;Laerm;63010;55.668;37.878;2023-01-16T13:10:20;62.35;58.02;70.43;;
74531;Laerm;63010;55.668;37.878;2023-01-16T13:13:17;61.73;57.48;71.90;;
74531;Laerm;63010;55.668;37.878;2023-01-16T13:16:10;61.61;58.30;70.29;;
74531;Laerm;63010;55.668;37.878;2023-01-16T13:18:58;62.86;58.25;65.99;;
74531;Laerm;63010;55.668;37.878;2023-01-16T13:21:27;62.46;57.72;70.36;;
74531;Laerm;63010;55.668;37.878;2023-01-16T13:24:04;62.00;57.53;68.10;;
74531;Laerm;63010;55.668;37.878;2023-01-16T13:26:34;61.66;57.86;64.98;;
74531;Laerm;63010;55.668;37.878;2023-01-16T13:29:09;62.52;58.70;66.58;;
74531;Laerm;63010;55.668;37.878;2023-01-16T13:31:41;61.40;57.86;66.09;;
74531;Laerm;63010;55.668;37.878;2023-01-16T13:34:15;61.67;56.84;66.34;;
74531;Laerm;63010;55.668;37.878;2023-01-16T13:42:17;61.39;57.76;65.10;;
74531;Laerm;63010;55.668;37.878;2023-01-16T13:44:53;62.48;57.58;73.44;;
74531;Laerm;63010;55.668;37.878;2023-01-16T13:47:39;61.39;56.93;69.45;;
74531;Laerm;63010;55.668;37.878;2023-01-16T13:50:29;61.54;57.81;72.05;;
74531;Laerm;63010;55.668;37.878;2023-01-16T13:53:04;62.59;57.83;70.52;;
74531;Laerm;63010;55.668;37.878;2023-01-16T13:55:38;61.31;57.58;66.65;;
74531;Laerm;63010;55.668;37.878;2023-01-16T13:58:22;61.72;56.45;70.20;;
74531;Laerm;63010;55.668;37.878;2023-01-16T14:01:03;62.15;57.55;73.31;;
74531;Laerm;63010;55.668;37.878;2023-01-16T14:03:31;61.82;57.69;66.86;;
74531;Laerm;63010;55.668;37.878;2023-01-16T14:16:43;61.22;57.78;66.72;;
74531;Laerm;63010;55.668;37.878;2023-01-16T14:21:42;61.33;57.23;66.42;;
74531;Laerm;63010;55.668;37.878;2023-01-16T14:24:18;61.76;57.08;75.15;;
74531;Laerm;63010;55.668;37.878;2023-01-16T14:26:46;61.70;58.14;69.39;;
74531;Laerm;63010;55.668;37.878;2023-01-16T14:29:32;62.08;58.28;69.17;;
74531;Laerm;63010;55.668;37.878;2023-01-16T14:34:56;62.55;58.79;68.76;;
74531;Laerm;63010;55.668;37.878;2023-01-16T14:37:35;61.06;56.80;66.60;;
74531;Laerm;63010;55.668;37.878;2023-01-16T14:40:19;62.43;58.28;73.45;;
74531;Laerm;63010;55.668;37.878;2023-01-16T14:42:48;61.80;58.02;67.84;;
74531;Laerm;63010;55.668;37.878;2023-01-16T14:45:35;62.17;57.60;71.31;;
74531;Laerm;63010;55.668;37.878;2023-01-16T14:56:36;62.48;58.85;74.64;;
74531;Laerm;63010;55.668;37.878;2023-01-16T14:59:07;62.27;58.03;72.39;;
74531;Laerm;63010;55.668;37.878;2023-01-16T15:01:39;62.30;58.48;70.53;;
74531;Laerm;63010;55.668;37.878;2023-01-16T15:04:28;61.49;57.78;67.29;;
74531;Laerm;63010;55.668;37.878;2023-01-16T15:07:00;61.78;57.87;70.19;;
74531;Laerm;63010;55.668;37.878;2023-01-16T15:09:29;62.47;58.62;72.04;;
74531;Laerm;63010;55.668;37.878;2023-01-16T15:12:08;63.42;58.25;79.82;;
74531;Laerm;63010;55.668;37.878;2023-01-16T15:14:35;62.84;58.06;77.14;;
74531;Laerm;63010;55.668;37.878;2023-01-16T15:17:21;62.84;58.98;71.90;;
74531;Laerm;63010;55.668;37.878;2023-01-16T15:22:57;62.79;58.67;77.45;;
74531;Laerm;63010;55.668;37.878;2023-01-16T15:30:29;61.60;58.06;67.91;;
74531;Laerm;63010;55.668;37.878;2023-01-16T15:32:59;62.72;58.80;72.78;;
74531;Laerm;63010;55.668;37.878;2023-01-16T15:35:57;61.59;58.37;71.04;;
74531;Laerm;63010;55.668;37.878;2023-01-16T15:38:26;61.98;57.75;68.24;;
74531;Laerm;63010;55.668;37.878;2023-01-16T15:40:52;62.29;58.77;65.93;;
74531;Laerm;63010;55.668;37.878;2023-01-16T15:43:21;62.28;58.75;70.83;;
74531;Laerm;63010;55.668;37.878;2023-01-16T15:46:16;62.24;57.44;69.77;;
74531;Laerm;63010;55.668;37.878;2023-01-16T15:51:26;62.04;58.25;69.59;;
74531;Laerm;63010;55.668;37.878;2023-01-16T15:53:55;61.69;57.10;69.94;;
74531;Laerm;63010;55.668;37.878;2023-01-16T15:56:24;61.73;57.03;78.46;;
74531;Laerm;63010;55.668;37.878;2023-01-16T15:58:53;61.33;56.94;66.14;;
74531;Laerm;63010;55.668;37.878;2023-01-16T16:01:30;61.21;57.75;65.85;;
74531;Laerm;63010;55.668;37.878;2023-01-16T16:03:58;61.98;58.28;68.63;;
74531;Laerm;63010;55.668;37.878;2023-01-16T16:06:26;61.54;57.00;67.67;;
74531;Laerm;63010;55.668;37.878;2023-01-16T16:08:54;61.77;57.26;66.60;;
74531;Laerm;63010;55.668;37.878;2023-01-16T16:11:29;60.64;56.42;71.46;;
74531;Laerm;63010;55.668;37.878;2023-01-16T16:14:24;61.54;57.06;73.01;;